Terminal Aerodrome Forecast
Issued by NWS Raleigh/Durham, NC

Current Version | Previous Version | Text Only | Print | Product List | Glossary On
Versions: 1 2 3 4 5 6 7 8 9 10 11 12 13 14 15 16 17 18 19 20 21 22 23 24 25 26 27 28 29 30 31 32 33 34 35 36 37 38 39 40 41 42 43 44 45 46 47 48 49 50
248
FTUS42 KRAH 031619 AAC
TAFGSO
TAF AMD
KGSO 031619Z 0316/0412 24006KT P6SM SCT015 BKN120
      TEMPO 0316/0319 BKN018
     FM031900 23008KT P6SM VCTS SCT035CB BKN080
      TEMPO 0319/0322 29018G30KT 2SM SHRA BR SCT018 BKN030
     FM040000 20009KT P6SM VCSH BKN040=

USA.gov is the U.S. government's official web portal to all federal, state and local government web resources and services.